createdAt,value
2023-04-26T00:00:02.501Z,1008.35
2023-04-26T00:01:02.490Z,1008.36
2023-04-26T00:02:02.468Z,1008.39
2023-04-26T00:03:02.576Z,1008.40
2023-04-26T00:04:02.775Z,1008.40
2023-04-26T00:05:02.694Z,1008.42
2023-04-26T00:06:02.480Z,1008.43
2023-04-26T00:07:02.415Z,1008.43
2023-04-26T00:08:02.422Z,1008.47
2023-04-26T00:09:02.421Z,1008.41
2023-04-26T00:10:02.382Z,1008.40
2023-04-26T00:11:02.581Z,1008.42
2023-04-26T00:12:02.380Z,1008.41
2023-04-26T00:13:02.350Z,1008.42
2023-04-26T00:14:02.399Z,1008.41
2023-04-26T00:15:02.327Z,1008.40
2023-04-26T00:16:02.322Z,1008.42
2023-04-26T00:17:02.303Z,1008.41
2023-04-26T00:18:02.475Z,1008.50
2023-04-26T00:19:02.282Z,1008.47
2023-04-26T00:20:02.293Z,1008.39
2023-04-26T00:21:02.261Z,1008.40
2023-04-26T00:22:02.253Z,1008.44
2023-04-26T00:23:02.238Z,1008.41
2023-04-26T00:24:02.235Z,1008.46
2023-04-26T00:25:02.235Z,1008.41
2023-04-26T00:26:02.222Z,1008.45
2023-04-26T00:27:02.221Z,1008.42
2023-04-26T00:28:02.186Z,1008.43
2023-04-26T00:29:02.177Z,1008.40
2023-04-26T00:30:02.186Z,1008.42
2023-04-26T00:31:02.148Z,1008.42
2023-04-26T00:32:02.246Z,1008.45
2023-04-26T00:33:02.201Z,1008.41
2023-04-26T00:34:02.173Z,1008.41
2023-04-26T00:35:02.115Z,1008.39
2023-04-26T00:36:02.102Z,1008.42
2023-04-26T00:37:02.081Z,1008.41
2023-04-26T00:38:02.086Z,1008.44
2023-04-26T00:39:02.100Z,1008.39
2023-04-26T00:40:02.130Z,1008.42
2023-04-26T00:41:02.040Z,1008.41
2023-04-26T00:42:02.040Z,1008.42
2023-04-26T00:43:02.027Z,1008.43
2023-04-26T00:44:02.073Z,1008.43
2023-04-26T00:45:02.043Z,1008.41
2023-04-26T00:46:02.041Z,1008.44
2023-04-26T00:47:01.997Z,1008.40
2023-04-26T00:48:02.021Z,1008.44
2023-04-26T00:49:01.961Z,1008.44
2023-04-26T00:50:02.011Z,1008.42
2023-04-26T00:51:01.984Z,1008.42
2023-04-26T00:52:01.916Z,1008.43
2023-04-26T00:53:01.895Z,1008.46
2023-04-26T00:54:01.908Z,1008.44
2023-04-26T00:55:01.905Z,1008.49
2023-04-26T00:56:01.938Z,1008.43
2023-04-26T00:57:01.853Z,1008.45
2023-04-26T00:58:01.850Z,1008.43
2023-04-26T00:59:01.871Z,1008.43
2023-04-26T01:00:01.844Z,1008.47
2023-04-26T01:01:01.840Z,1008.44
2023-04-26T01:02:01.818Z,1008.51
2023-04-26T01:03:01.945Z,1008.44
2023-04-26T01:04:02.162Z,1008.41
2023-04-26T01:05:01.785Z,1008.51
2023-04-26T01:06:01.810Z,1008.47
2023-04-26T01:07:01.745Z,1008.43
2023-04-26T01:08:01.737Z,1008.46
2023-04-26T01:09:01.776Z,1008.43
2023-04-26T01:10:01.737Z,1008.51
2023-04-26T01:11:01.704Z,1008.49
2023-04-26T01:12:01.695Z,1008.51
2023-04-26T01:13:01.685Z,1008.48
2023-04-26T01:14:01.715Z,1008.50
2023-04-26T01:15:01.672Z,1008.50
2023-04-26T01:16:01.664Z,1008.52
2023-04-26T01:17:01.677Z,1008.50
2023-04-26T01:18:01.710Z,1008.48
2023-04-26T01:19:01.729Z,1008.47
2023-04-26T01:20:01.598Z,1008.51
2023-04-26T01:21:03.456Z,1008.53
2023-04-26T01:22:01.581Z,1008.51
2023-04-26T01:23:01.580Z,1008.54
2023-04-26T01:24:02.204Z,1008.52
2023-04-26T01:25:01.543Z,1008.56
2023-04-26T01:26:01.608Z,1008.51
2023-04-26T01:27:01.525Z,1008.57
2023-04-26T01:28:01.540Z,1008.57
2023-04-26T01:29:01.498Z,1008.63
2023-04-26T01:30:01.483Z,1008.63
2023-04-26T01:31:01.554Z,1008.59
2023-04-26T01:32:01.466Z,1008.59
2023-04-26T01:33:01.498Z,1008.62
2023-04-26T01:34:01.452Z,1008.65
2023-04-26T01:35:01.446Z,1008.63
2023-04-26T01:36:01.423Z,1008.68
2023-04-26T01:37:01.424Z,1008.65
2023-04-26T01:38:01.408Z,1008.62
2023-04-26T01:39:01.390Z,1008.65
2023-04-26T01:40:01.406Z,1008.68
2023-04-26T01:41:01.402Z,1008.73
2023-04-26T01:42:01.353Z,1008.68
2023-04-26T01:43:01.341Z,1008.71
2023-04-26T01:44:01.339Z,1008.76
2023-04-26T01:45:01.391Z,1008.75
2023-04-26T01:46:01.351Z,1008.73
2023-04-26T01:47:01.333Z,1008.80
2023-04-26T01:48:01.315Z,1008.78
2023-04-26T01:49:01.278Z,1008.78
2023-04-26T01:50:02.196Z,1008.75
2023-04-26T01:51:01.289Z,1008.73
2023-04-26T01:52:01.297Z,1008.76
2023-04-26T01:53:01.238Z,1008.76
2023-04-26T01:54:01.220Z,1008.73
2023-04-26T01:55:01.211Z,1008.74
2023-04-26T01:56:01.209Z,1008.70
2023-04-26T01:57:01.704Z,1008.69
2023-04-26T01:58:01.175Z,1008.78
2023-04-26T01:59:01.162Z,1008.74
2023-04-26T02:00:01.153Z,1008.75
2023-04-26T02:01:01.159Z,1008.72
2023-04-26T02:02:01.289Z,1008.71
2023-04-26T02:03:01.217Z,1008.75
2023-04-26T02:04:01.115Z,1008.76
2023-04-26T02:05:01.150Z,1008.75
2023-04-26T02:06:01.129Z,1008.72
2023-04-26T02:07:01.087Z,1008.78
2023-04-26T02:08:01.073Z,1008.75
2023-04-26T02:09:01.058Z,1008.74
2023-04-26T02:10:01.055Z,1008.69
2023-04-26T02:11:01.057Z,1008.75
2023-04-26T02:12:01.022Z,1008.69
2023-04-26T02:13:01.027Z,1008.71
2023-04-26T02:14:01.007Z,1008.72
2023-04-26T02:15:00.997Z,1008.77
2023-04-26T02:16:01.028Z,1008.71
2023-04-26T02:17:00.970Z,1008.74
2023-04-26T02:18:01.110Z,1008.74
2023-04-26T02:19:00.973Z,1008.75
2023-04-26T02:20:00.939Z,1008.73
2023-04-26T02:21:00.948Z,1008.72
2023-04-26T02:22:00.915Z,1008.70
2023-04-26T02:23:00.908Z,1008.68
2023-04-26T02:24:00.905Z,1008.73
2023-04-26T02:25:00.923Z,1008.69
2023-04-26T02:26:00.886Z,1008.69
2023-04-26T02:27:00.863Z,1008.64
2023-04-26T02:28:00.877Z,1008.77
2023-04-26T02:29:00.852Z,1008.66
2023-04-26T02:30:00.851Z,1008.72
2023-04-26T02:31:00.855Z,1008.72
2023-04-26T02:32:01.150Z,1008.74
2023-04-26T02:33:00.885Z,1008.72
2023-04-26T02:34:00.797Z,1008.76
2023-04-26T02:35:00.799Z,1008.72
2023-04-26T02:36:00.785Z,1008.71
2023-04-26T02:37:00.753Z,1008.67
2023-04-26T02:38:00.771Z,1008.73
2023-04-26T02:39:00.762Z,1008.68
2023-04-26T02:40:00.780Z,1008.76
2023-04-26T02:41:00.724Z,1008.69
2023-04-26T02:42:00.701Z,1008.71
2023-04-26T02:43:00.686Z,1008.73
2023-04-26T02:44:00.672Z,1008.75
2023-04-26T02:45:00.692Z,1008.68
2023-04-26T02:46:00.673Z,1008.64
2023-04-26T02:47:00.725Z,1008.69
2023-04-26T02:48:00.710Z,1008.69
2023-04-26T02:49:00.630Z,1008.74
2023-04-26T02:50:00.671Z,1008.72
2023-04-26T02:51:00.654Z,1008.75
2023-04-26T02:52:00.590Z,1008.68
2023-04-26T02:53:00.585Z,1008.67
2023-04-26T02:54:00.579Z,1008.74
2023-04-26T02:55:00.603Z,1008.71
2023-04-26T02:56:00.545Z,1008.74
2023-04-26T02:57:00.542Z,1008.69
2023-04-26T02:58:00.533Z,1008.72
2023-04-26T02:59:00.511Z,1008.68
2023-04-26T03:00:00.551Z,1008.71
2023-04-26T03:01:01.584Z,1008.71
2023-04-26T03:02:00.489Z,1008.76
2023-04-26T03:03:00.670Z,1008.69
2023-04-26T03:04:00.599Z,1008.70
2023-04-26T03:05:00.648Z,1008.70
2023-04-26T03:06:00.428Z,1008.73
2023-04-26T03:07:00.455Z,1008.68
2023-04-26T03:08:00.420Z,1008.71
2023-04-26T03:09:00.421Z,1008.75
2023-04-26T03:10:00.407Z,1008.71
2023-04-26T03:11:00.382Z,1008.76
2023-04-26T03:12:00.375Z,1008.72
2023-04-26T03:13:00.365Z,1008.78
2023-04-26T03:14:00.383Z,1008.77
2023-04-26T03:15:00.355Z,1008.79
2023-04-26T03:16:00.334Z,1008.74
2023-04-26T03:17:00.428Z,1008.77
2023-04-26T03:18:00.379Z,1008.79
2023-04-26T03:19:00.333Z,1008.79
2023-04-26T03:20:02.526Z,1008.81
2023-04-26T03:21:00.271Z,1008.71
2023-04-26T03:22:00.272Z,1008.80
2023-04-26T03:23:00.291Z,1008.76
2023-04-26T03:24:00.247Z,1008.79
2023-04-26T03:25:00.258Z,1008.84
2023-04-26T03:26:00.230Z,1008.80
2023-04-26T03:27:00.248Z,1008.85
2023-04-26T03:28:00.209Z,1008.81
2023-04-26T03:29:00.201Z,1008.81
2023-04-26T03:30:00.199Z,1008.84
2023-04-26T03:31:00.189Z,1008.79
2023-04-26T03:32:00.300Z,1008.84
2023-04-26T03:33:00.240Z,1008.84
2023-04-26T03:34:00.138Z,1008.83
2023-04-26T03:35:00.172Z,1008.87
2023-04-26T03:36:00.148Z,1008.89
2023-04-26T03:37:00.176Z,1008.90
2023-04-26T03:38:00.150Z,1008.94
2023-04-26T03:39:00.133Z,1008.92
2023-04-26T03:40:00.199Z,1008.93
2023-04-26T03:41:00.063Z,1008.92
2023-04-26T03:42:00.082Z,1008.89
2023-04-26T03:43:00.137Z,1008.91
2023-04-26T03:44:00.096Z,1008.91
2023-04-26T03:45:00.041Z,1008.89
2023-04-26T03:46:00.059Z,1008.87
2023-04-26T03:46:59.994Z,1008.92
2023-04-26T03:48:00.061Z,1008.94
2023-04-26T03:48:59.995Z,1008.91
2023-04-26T03:50:00.012Z,1008.94
2023-04-26T03:50:59.955Z,1008.93
2023-04-26T03:51:59.977Z,1008.91
2023-04-26T03:52:59.935Z,1008.95
2023-04-26T03:53:59.916Z,1008.97
2023-04-26T03:54:59.930Z,1008.94
2023-04-26T03:55:59.905Z,1008.95
2023-04-26T03:57:00.683Z,1008.99
2023-04-26T03:57:59.968Z,1008.94
2023-04-26T03:58:59.877Z,1008.93
2023-04-26T03:59:59.867Z,1009.00
2023-04-26T04:00:59.853Z,1009.00
2023-04-26T04:01:59.873Z,1009.03
2023-04-26T04:02:59.963Z,1009.04
2023-04-26T04:04:00.078Z,1009.06
2023-04-26T04:04:59.896Z,1009.01
2023-04-26T04:05:59.790Z,1009.06
2023-04-26T04:06:59.800Z,1009.06
2023-04-26T04:07:59.780Z,1009.02
2023-04-26T04:08:59.883Z,1009.01
2023-04-26T04:09:59.744Z,1009.05
2023-04-26T04:11:00.870Z,1009.06
2023-04-26T04:11:59.722Z,1008.99
2023-04-26T04:12:59.721Z,1009.00
2023-04-26T04:13:59.703Z,1009.01
2023-04-26T04:14:59.688Z,1009.09
2023-04-26T04:16:00.146Z,1009.09
2023-04-26T04:16:59.722Z,1009.09
2023-04-26T04:17:59.753Z,1009.08
2023-04-26T04:18:59.644Z,1009.09
2023-04-26T04:19:59.688Z,1009.15
2023-04-26T04:20:59.623Z,1009.13
2023-04-26T04:21:59.608Z,1009.10
2023-04-26T04:22:59.656Z,1009.14
2023-04-26T04:23:59.614Z,1009.13
2023-04-26T04:24:59.647Z,1009.15
2023-04-26T04:25:59.579Z,1009.13
2023-04-26T04:26:59.594Z,1009.14
2023-04-26T04:27:59.548Z,1009.12
2023-04-26T04:28:59.565Z,1009.11
2023-04-26T04:29:59.528Z,1009.15
2023-04-26T04:30:59.533Z,1009.16
2023-04-26T04:31:59.517Z,1009.16
2023-04-26T04:32:59.552Z,1009.14
2023-04-26T04:33:59.485Z,1009.18
2023-04-26T04:34:59.475Z,1009.12
2023-04-26T04:35:59.502Z,1009.15
2023-04-26T04:36:59.496Z,1009.21
2023-04-26T04:37:59.432Z,1009.13
2023-04-26T04:38:59.438Z,1009.11
2023-04-26T04:39:59.433Z,1009.09
2023-04-26T04:40:59.434Z,1009.11
2023-04-26T04:41:59.395Z,1009.19
2023-04-26T04:42:59.421Z,1009.14
2023-04-26T04:43:59.397Z,1009.13
2023-04-26T04:44:59.365Z,1009.17
2023-04-26T04:45:59.395Z,1009.18
2023-04-26T04:46:59.519Z,1009.22
2023-04-26T04:47:59.342Z,1009.22
2023-04-26T04:48:59.363Z,1009.21
2023-04-26T04:49:59.308Z,1009.19
2023-04-26T04:50:59.301Z,1009.29
2023-04-26T04:51:59.284Z,1009.25
2023-04-26T04:52:59.304Z,1009.23
2023-04-26T04:53:59.272Z,1009.23
2023-04-26T04:54:59.254Z,1009.25
2023-04-26T04:55:59.257Z,1009.31
2023-04-26T04:56:59.234Z,1009.37
2023-04-26T04:57:59.228Z,1009.33
2023-04-26T04:58:59.306Z,1009.37
2023-04-26T04:59:59.195Z,1009.35
2023-04-26T05:00:59.217Z,1009.36
2023-04-26T05:01:59.207Z,1009.35
2023-04-26T05:02:59.251Z,1009.34
2023-04-26T05:03:59.407Z,1009.40
2023-04-26T05:04:59.184Z,1009.38
2023-04-26T05:05:59.182Z,1009.39
2023-04-26T05:06:59.148Z,1009.38
2023-04-26T05:07:59.210Z,1009.39
2023-04-26T05:08:59.109Z,1009.40
2023-04-26T05:09:59.089Z,1009.36
2023-04-26T05:10:59.085Z,1009.40
2023-04-26T05:11:59.091Z,1009.42
2023-04-26T05:12:59.054Z,1009.39
2023-04-26T05:13:59.329Z,1009.38
2023-04-26T05:14:59.083Z,1009.41
2023-04-26T05:15:59.074Z,1009.43
2023-04-26T05:16:59.016Z,1009.42
2023-04-26T05:17:59.044Z,1009.42
2023-04-26T05:18:59.003Z,1009.47
2023-04-26T05:19:58.999Z,1009.46
2023-04-26T05:20:58.976Z,1009.50
2023-04-26T05:21:58.998Z,1009.47
2023-04-26T05:22:58.951Z,1009.51
2023-04-26T05:23:58.946Z,1009.53
2023-04-26T05:24:58.951Z,1009.48
2023-04-26T05:25:58.916Z,1009.50
2023-04-26T05:26:58.912Z,1009.51
2023-04-26T05:27:58.920Z,1009.57
2023-04-26T05:28:58.916Z,1009.53
2023-04-26T05:29:58.878Z,1009.57
2023-04-26T05:30:58.883Z,1009.63
2023-04-26T05:31:58.891Z,1009.58
2023-04-26T05:32:58.898Z,1009.54
2023-04-26T05:33:58.831Z,1009.58
2023-04-26T05:34:58.824Z,1009.54
2023-04-26T05:35:58.820Z,1009.56
2023-04-26T05:36:58.817Z,1009.57
2023-04-26T05:37:58.800Z,1009.55
2023-04-26T05:38:58.792Z,1009.60
2023-04-26T05:39:58.767Z,1009.59
2023-04-26T05:40:58.785Z,1009.62
2023-04-26T05:41:58.749Z,1009.67
2023-04-26T05:42:58.728Z,1009.66
2023-04-26T05:43:58.723Z,1009.76
2023-04-26T05:44:58.733Z,1009.72
2023-04-26T05:45:58.799Z,1009.64
2023-04-26T05:46:58.700Z,1009.68
2023-04-26T05:47:58.697Z,1009.65
2023-04-26T05:48:58.676Z,1009.70
2023-04-26T05:49:58.661Z,1009.62
2023-04-26T05:50:58.655Z,1009.64
2023-04-26T05:51:58.626Z,1009.64
2023-04-26T05:52:58.622Z,1009.61
2023-04-26T05:53:58.603Z,1009.66
2023-04-26T05:54:58.601Z,1009.67
2023-04-26T05:55:58.602Z,1009.67
2023-04-26T05:56:59.233Z,1009.67
2023-04-26T05:57:58.602Z,1009.66
2023-04-26T05:58:58.552Z,1009.65
2023-04-26T05:59:58.538Z,1009.69
2023-04-26T06:00:58.539Z,1009.68
2023-04-26T06:01:58.588Z,1009.71
2023-04-26T06:02:58.691Z,1009.73
2023-04-26T06:04:00.613Z,1009.74
2023-04-26T06:04:58.687Z,1009.77
2023-04-26T06:05:58.482Z,1009.75
2023-04-26T06:06:58.458Z,1009.73
2023-04-26T06:07:58.444Z,1009.77
2023-04-26T06:08:58.447Z,1009.71
2023-04-26T06:09:58.507Z,1009.70
2023-04-26T06:10:58.432Z,1009.70
2023-04-26T06:11:58.411Z,1009.71
2023-04-26T06:12:58.416Z,1009.75
2023-04-26T06:13:58.395Z,1009.79
2023-04-26T06:14:58.414Z,1009.76
2023-04-26T06:15:58.372Z,1009.79
2023-04-26T06:16:58.423Z,1009.68
2023-04-26T06:17:58.424Z,1009.72
2023-04-26T06:18:58.342Z,1009.72
2023-04-26T06:19:58.343Z,1009.78
2023-04-26T06:20:58.314Z,1009.73
2023-04-26T06:21:58.303Z,1009.72
2023-04-26T06:22:58.284Z,1009.75
2023-04-26T06:23:58.297Z,1009.71
2023-04-26T06:24:58.281Z,1009.71
2023-04-26T06:25:58.250Z,1009.80
2023-04-26T06:26:58.253Z,1009.60
2023-04-26T06:27:58.228Z,1009.75
2023-04-26T06:28:58.230Z,1009.76
2023-04-26T06:29:58.227Z,1009.80
2023-04-26T06:30:58.341Z,1009.73
2023-04-26T06:31:58.184Z,1009.77
2023-04-26T06:32:58.191Z,1009.79
2023-04-26T06:33:58.172Z,1009.75
2023-04-26T06:34:58.214Z,1009.77
2023-04-26T06:35:58.218Z,1009.77
2023-04-26T06:36:58.138Z,1009.79
2023-04-26T06:37:58.116Z,1009.74
2023-04-26T06:38:58.399Z,1009.76
2023-04-26T06:39:58.708Z,1009.76
2023-04-26T06:40:58.108Z,1009.80
2023-04-26T06:41:58.083Z,1009.83
2023-04-26T06:42:58.075Z,1009.85
2023-04-26T06:43:58.084Z,1009.84
2023-04-26T06:44:58.054Z,1009.82
2023-04-26T06:45:58.046Z,1009.84
2023-04-26T06:46:58.032Z,1009.85
2023-04-26T06:47:58.072Z,1009.73
2023-04-26T06:48:58.028Z,1009.85
2023-04-26T06:49:57.989Z,1009.88
2023-04-26T06:50:58.013Z,1009.89
2023-04-26T06:51:57.984Z,1009.90
2023-04-26T06:52:58.141Z,1009.92
2023-04-26T06:53:57.950Z,1009.88
2023-04-26T06:54:58.002Z,1009.85
2023-04-26T06:55:57.928Z,1009.84
2023-04-26T06:56:59.390Z,1009.88
2023-04-26T06:57:57.919Z,1009.95
2023-04-26T06:58:57.891Z,1009.93
2023-04-26T06:59:57.884Z,1009.84
2023-04-26T07:00:58.284Z,1009.89
2023-04-26T07:01:57.885Z,1009.91
2023-04-26T07:02:58.111Z,1009.98
2023-04-26T07:03:58.318Z,1010.03
2023-04-26T07:04:57.967Z,1009.76
2023-04-26T07:05:57.807Z,1010.02
2023-04-26T07:06:57.965Z,1010.06
2023-04-26T07:07:57.812Z,1009.71
2023-04-26T07:08:58.881Z,1009.72
2023-04-26T07:09:57.767Z,1009.95
2023-04-26T07:10:57.968Z,1009.95
2023-04-26T07:11:57.740Z,1009.99
2023-04-26T07:12:57.812Z,1010.05
2023-04-26T07:13:57.777Z,1010.02
2023-04-26T07:14:58.032Z,1010.01
2023-04-26T07:15:57.712Z,1009.97
2023-04-26T07:16:57.686Z,1010.07
2023-04-26T07:17:57.698Z,1010.01
2023-04-26T07:18:57.686Z,1010.01
2023-04-26T07:19:57.673Z,1009.95
2023-04-26T07:20:57.768Z,1009.94
2023-04-26T07:21:57.651Z,1010.03
2023-04-26T07:22:57.856Z,1009.69
2023-04-26T07:23:57.626Z,1009.73
2023-04-26T07:24:57.599Z,1009.71
2023-04-26T07:25:57.917Z,1009.73
2023-04-26T07:26:57.796Z,1009.82
2023-04-26T07:27:57.572Z,1009.77
2023-04-26T07:28:57.568Z,1010.08
2023-04-26T07:29:57.558Z,1010.09
2023-04-26T07:30:57.534Z,1010.13
2023-04-26T07:31:57.516Z,1009.93
2023-04-26T07:32:57.707Z,1010.07
2023-04-26T07:33:57.571Z,1009.93
2023-04-26T07:34:57.484Z,1010.16
2023-04-26T07:35:57.495Z,1010.09
2023-04-26T07:36:57.480Z,1010.13
2023-04-26T07:37:57.458Z,1010.14
2023-04-26T07:38:57.472Z,1010.16
2023-04-26T07:39:57.430Z,1009.85
2023-04-26T07:40:57.417Z,1009.88
2023-04-26T07:41:57.427Z,1009.77
2023-04-26T07:42:57.418Z,1010.19
2023-04-26T07:43:57.388Z,1010.23
2023-04-26T07:44:57.379Z,1010.17
2023-04-26T07:45:57.363Z,1010.20
2023-04-26T07:46:57.353Z,1010.04
2023-04-26T07:47:57.392Z,1010.22
2023-04-26T07:48:57.334Z,1010.20
2023-04-26T07:49:57.328Z,1009.78
2023-04-26T07:50:57.336Z,1009.81
2023-04-26T07:51:57.300Z,1009.92
2023-04-26T07:52:57.287Z,1010.29
2023-04-26T07:53:57.353Z,1009.88
2023-04-26T07:54:57.288Z,1009.88
2023-04-26T07:55:57.293Z,1009.95
2023-04-26T07:56:57.258Z,1009.87
2023-04-26T07:57:57.230Z,1009.97
2023-04-26T07:58:58.239Z,1009.95
2023-04-26T07:59:57.229Z,1010.10
2023-04-26T08:00:57.209Z,1010.05
2023-04-26T08:01:57.209Z,1009.96
2023-04-26T08:02:57.458Z,1010.06
2023-04-26T08:03:57.753Z,1010.09
2023-04-26T08:04:57.397Z,1010.48
2023-04-26T08:05:57.275Z,1010.39
2023-04-26T08:06:57.195Z,1010.06
2023-04-26T08:07:57.221Z,1010.09
2023-04-26T08:08:57.153Z,1010.02
2023-04-26T08:09:57.223Z,1010.39
2023-04-26T08:10:57.208Z,1010.01
2023-04-26T08:11:57.141Z,1009.99
2023-04-26T08:12:57.062Z,1010.01
2023-04-26T08:13:57.050Z,1010.02
2023-04-26T08:14:57.055Z,1010.05
2023-04-26T08:15:57.029Z,1010.05
2023-04-26T08:16:57.073Z,1010.00
2023-04-26T08:17:57.058Z,1010.00
2023-04-26T08:18:57.013Z,1010.02
2023-04-26T08:19:56.988Z,1010.07
2023-04-26T08:20:56.972Z,1010.12
2023-04-26T08:21:56.964Z,1010.09
2023-04-26T08:22:56.953Z,1010.11
2023-04-26T08:23:56.950Z,1010.13
2023-04-26T08:24:56.974Z,1010.16
2023-04-26T08:25:56.916Z,1010.21
2023-04-26T08:26:56.963Z,1010.20
2023-04-26T08:27:56.894Z,1010.20
2023-04-26T08:28:56.888Z,1010.16
2023-04-26T08:29:57.036Z,1010.38
2023-04-26T08:30:56.886Z,1010.34
2023-04-26T08:31:56.860Z,1010.28
2023-04-26T08:32:56.931Z,1010.31
2023-04-26T08:33:56.844Z,1010.70
2023-04-26T08:34:56.855Z,1010.35
2023-04-26T08:35:56.807Z,1010.67
2023-04-26T08:36:56.839Z,1010.39
2023-04-26T08:37:56.790Z,1010.38
2023-04-26T08:38:56.794Z,1010.46
2023-04-26T08:39:56.776Z,1010.29
2023-04-26T08:40:56.758Z,1010.39
2023-04-26T08:41:56.780Z,1010.15
2023-04-26T08:42:56.764Z,1010.04
2023-04-26T08:43:56.758Z,1010.03
2023-04-26T08:44:56.758Z,1010.13
2023-04-26T08:45:56.726Z,1010.09
2023-04-26T08:46:56.688Z,1010.03
2023-04-26T08:47:56.743Z,1010.10
2023-04-26T08:48:56.678Z,1010.11
2023-04-26T08:49:56.698Z,1010.11
2023-04-26T08:50:56.643Z,1010.14
2023-04-26T08:51:56.671Z,1010.19
2023-04-26T08:52:56.629Z,1010.26
2023-04-26T08:53:56.612Z,1010.27
2023-04-26T08:54:56.624Z,1010.33
2023-04-26T08:55:56.619Z,1010.36
2023-04-26T08:56:56.574Z,1010.44
2023-04-26T08:57:56.579Z,1010.84
2023-04-26T08:58:56.601Z,1010.80
2023-04-26T08:59:56.572Z,1010.71
2023-04-26T09:00:56.535Z,1010.71
2023-04-26T09:01:56.566Z,1010.66
2023-04-26T09:02:56.676Z,1010.77
2023-04-26T09:03:57.184Z,1010.74
2023-04-26T09:04:56.646Z,1010.75
2023-04-26T09:05:56.478Z,1010.57
2023-04-26T09:06:56.486Z,1010.34
2023-04-26T09:07:56.460Z,1010.30
2023-04-26T09:08:56.444Z,1010.31
2023-04-26T09:09:56.477Z,1010.23
2023-04-26T09:12:12.170Z,1010.13
2023-04-26T09:13:12.203Z,1010.14
2023-04-26T09:14:12.277Z,1010.11
2023-04-26T09:15:12.159Z,1010.17
2023-04-26T09:16:12.155Z,1010.15
2023-04-26T09:17:12.118Z,1010.17
2023-04-26T09:18:12.114Z,1010.24
2023-04-26T09:19:12.128Z,1010.20
2023-04-26T09:20:12.083Z,1010.20
2023-04-26T09:21:12.083Z,1010.15
2023-04-26T09:22:12.082Z,1010.26
2023-04-26T09:23:12.050Z,1010.24
2023-04-26T09:24:12.269Z,1010.27
2023-04-26T09:25:12.016Z,1010.23
2023-04-26T09:26:12.046Z,1010.27
2023-04-26T09:27:12.002Z,1010.31
2023-04-26T09:28:11.989Z,1010.26
2023-04-26T09:29:11.979Z,1010.26
2023-04-26T09:30:12.084Z,1010.25
2023-04-26T09:31:12.033Z,1010.26
2023-04-26T09:32:11.952Z,1010.27
2023-04-26T09:33:11.974Z,1010.32
2023-04-26T09:34:11.932Z,1010.47
2023-04-26T09:35:11.915Z,1010.37
2023-04-26T09:36:12.378Z,1010.60
2023-04-26T09:37:11.888Z,1010.31
2023-04-26T09:38:13.314Z,1010.23
2023-04-26T09:39:11.865Z,1010.24
2023-04-26T09:40:11.854Z,1010.22
2023-04-26T09:41:11.881Z,1010.21
2023-04-26T09:42:11.855Z,1010.20
2023-04-26T09:43:11.889Z,1010.28
2023-04-26T09:44:11.809Z,1010.26
2023-04-26T09:45:11.804Z,1010.21
2023-04-26T09:46:11.956Z,1010.32
2023-04-26T09:47:11.932Z,1010.30
2023-04-26T09:48:11.778Z,1010.23
2023-04-26T09:49:11.768Z,1010.32
2023-04-26T09:50:11.749Z,1010.35
2023-04-26T09:51:11.777Z,1010.34
2023-04-26T09:52:11.727Z,1010.46
2023-04-26T09:53:11.719Z,1010.71
2023-04-26T09:54:11.703Z,1010.37
2023-04-26T09:55:19.071Z,1010.20
2023-04-26T09:56:12.699Z,1010.20
2023-04-26T09:57:11.680Z,1010.24
2023-04-26T09:58:11.657Z,1010.22
2023-04-26T09:59:11.650Z,1010.17
2023-04-26T10:00:11.683Z,1010.26
2023-04-26T10:01:11.873Z,1010.28
2023-04-26T10:02:12.074Z,1010.35
2023-04-26T10:03:11.735Z,1010.58
2023-04-26T10:04:12.492Z,1010.65
2023-04-26T10:05:11.615Z,1010.32
2023-04-26T10:06:11.570Z,1010.17
2023-04-26T10:07:11.552Z,1010.18
2023-04-26T10:08:11.548Z,1010.14
2023-04-26T10:09:11.543Z,1010.12
2023-04-26T10:10:11.561Z,1010.13
2023-04-26T10:11:11.610Z,1010.16
2023-04-26T10:12:11.500Z,1010.13
2023-04-26T10:13:11.488Z,1010.17
2023-04-26T10:14:11.476Z,1010.15
2023-04-26T10:15:11.499Z,1010.24
2023-04-26T10:16:11.502Z,1010.21
2023-04-26T10:17:11.448Z,1010.21
2023-04-26T10:18:11.619Z,1010.24
2023-04-26T10:19:11.441Z,1010.25
2023-04-26T10:20:11.422Z,1010.33
2023-04-26T10:21:11.406Z,1010.73
2023-04-26T10:22:11.392Z,1010.38
2023-04-26T10:23:11.378Z,1010.36
2023-04-26T10:24:11.389Z,1010.61
2023-04-26T10:25:11.355Z,1010.62
2023-04-26T10:26:11.345Z,1010.38
2023-04-26T10:27:11.357Z,1010.42
2023-04-26T10:28:11.332Z,1010.31
2023-04-26T10:29:11.312Z,1010.28
2023-04-26T10:30:11.324Z,1010.18
2023-04-26T10:31:11.292Z,1010.24
2023-04-26T10:32:11.291Z,1010.18
2023-04-26T10:33:11.307Z,1010.24
2023-04-26T10:34:11.979Z,1010.27
2023-04-26T10:35:11.866Z,1010.25
2023-04-26T10:36:11.255Z,1010.25
2023-04-26T10:37:11.263Z,1010.30
2023-04-26T10:38:11.211Z,1010.27
2023-04-26T10:39:11.222Z,1010.23
2023-04-26T10:40:11.201Z,1010.36
2023-04-26T10:41:11.203Z,1010.33
2023-04-26T10:42:11.187Z,1010.37
2023-04-26T10:43:11.183Z,1010.39
2023-04-26T10:44:11.164Z,1010.42
2023-04-26T10:45:11.144Z,1010.38
2023-04-26T10:46:11.144Z,1010.45
2023-04-26T10:47:11.125Z,1010.39
2023-04-26T10:48:11.104Z,1010.46
2023-04-26T10:49:11.090Z,1010.44
2023-04-26T10:50:11.326Z,1010.44
2023-04-26T10:51:11.085Z,1010.49
2023-04-26T10:52:11.062Z,1010.52
2023-04-26T10:53:11.054Z,1010.50
2023-04-26T10:54:11.038Z,1010.50
2023-04-26T10:55:11.049Z,1010.53
2023-04-26T10:56:11.015Z,1010.48
2023-04-26T10:57:11.000Z,1010.52
2023-04-26T10:58:11.874Z,1010.49
2023-04-26T10:59:28.425Z,1010.51
2023-04-26T11:00:11.966Z,1010.49
2023-04-26T11:01:11.027Z,1010.46
2023-04-26T11:02:10.963Z,1010.53
2023-04-26T11:03:11.011Z,1010.53
2023-04-26T11:04:10.985Z,1010.58
2023-04-26T11:05:10.928Z,1011.01
2023-04-26T11:06:10.928Z,1010.55
2023-04-26T11:07:10.890Z,1010.48
2023-04-26T11:08:11.838Z,1010.45
2023-04-26T11:09:10.873Z,1010.40
2023-04-26T11:10:10.890Z,1010.37
2023-04-26T11:11:10.861Z,1010.35
2023-04-26T11:12:10.856Z,1010.40
2023-04-26T11:13:10.820Z,1010.32
2023-04-26T11:14:10.852Z,1010.34
2023-04-26T11:15:10.801Z,1010.41
2023-04-26T11:16:10.856Z,1010.42
2023-04-26T11:17:10.920Z,1010.38
2023-04-26T11:18:10.770Z,1010.37
2023-04-26T11:19:10.781Z,1010.39
2023-04-26T11:20:10.746Z,1010.35
2023-04-26T11:21:10.746Z,1010.43
2023-04-26T11:22:10.758Z,1010.37
2023-04-26T11:23:10.739Z,1010.35
2023-04-26T11:24:10.704Z,1010.41
2023-04-26T11:25:10.696Z,1010.41
2023-04-26T11:26:10.726Z,1010.36
2023-04-26T11:27:10.971Z,1010.43
2023-04-26T11:28:10.659Z,1010.40
2023-04-26T11:29:10.657Z,1010.42
2023-04-26T11:30:10.716Z,1010.41
2023-04-26T11:31:10.676Z,1010.47
2023-04-26T11:32:10.656Z,1010.49
2023-04-26T11:33:10.626Z,1010.54
2023-04-26T11:34:10.596Z,1010.46
2023-04-26T11:35:10.584Z,1010.49
2023-04-26T11:36:10.588Z,1010.53
2023-04-26T11:37:10.555Z,1010.52
2023-04-26T11:38:10.568Z,1010.44
2023-04-26T11:39:13.667Z,1010.48
2023-04-26T11:40:10.525Z,1010.40
2023-04-26T11:41:10.559Z,1010.39
2023-04-26T11:42:10.498Z,1010.40
2023-04-26T11:43:10.491Z,1010.44
2023-04-26T11:44:10.496Z,1010.39
2023-04-26T11:45:10.489Z,1010.46
2023-04-26T11:46:10.587Z,1010.41
2023-04-26T11:47:10.531Z,1010.38
2023-04-26T11:48:10.537Z,1010.40
2023-04-26T11:49:10.459Z,1010.36
2023-04-26T11:50:10.417Z,1010.41
2023-04-26T11:51:10.413Z,1010.40
2023-04-26T11:52:10.405Z,1010.41
2023-04-26T11:53:10.418Z,1010.36
2023-04-26T11:54:10.530Z,1010.40
2023-04-26T11:55:10.365Z,1010.37
2023-04-26T11:56:10.350Z,1010.33
2023-04-26T11:57:10.352Z,1010.36
2023-04-26T11:58:10.534Z,1010.42
2023-04-26T11:59:10.321Z,1010.45
2023-04-26T12:00:10.323Z,1010.41
2023-04-26T12:01:10.309Z,1010.51
2023-04-26T12:02:10.355Z,1010.49
2023-04-26T12:03:10.553Z,1010.53
2023-04-26T12:04:10.482Z,1010.58
2023-04-26T12:05:10.376Z,1010.61
2023-04-26T12:06:10.256Z,1010.57